createdAt,value
2019-03-31T00:00:29.885Z,6.21
2019-03-31T00:01:07.974Z,6.15
2019-03-31T00:01:34.052Z,6.12
2019-03-31T00:02:05.265Z,6.10
2019-03-31T00:02:36.474Z,6.07
2019-03-31T00:03:07.826Z,6.05
2019-03-31T00:03:39.038Z,6.07
2019-03-31T00:04:10.250Z,6.06
2019-03-31T00:04:41.446Z,6.07
2019-03-31T00:05:12.647Z,6.05
2019-03-31T00:05:43.895Z,6.04
2019-03-31T00:06:15.095Z,6.04
2019-03-31T00:06:46.310Z,6.03
2019-03-31T00:07:17.530Z,6.03
2019-03-31T00:07:48.731Z,6.03
2019-03-31T00:08:19.958Z,6.04
2019-03-31T00:08:51.190Z,6.05
2019-03-31T00:09:22.430Z,6.05
2019-03-31T00:09:53.682Z,6.07
2019-03-31T00:10:24.884Z,6.08
2019-03-31T00:10:56.089Z,6.09
2019-03-31T00:11:27.307Z,6.09
2019-03-31T00:11:58.510Z,6.10
2019-03-31T00:12:29.796Z,6.11
2019-03-31T00:13:01.013Z,6.11
2019-03-31T00:13:32.215Z,6.10
2019-03-31T00:14:03.426Z,6.08
2019-03-31T00:14:34.651Z,6.09
2019-03-31T00:15:05.859Z,6.09
2019-03-31T00:15:37.071Z,6.10
2019-03-31T00:16:08.279Z,6.08
2019-03-31T00:16:39.569Z,6.07
2019-03-31T00:17:10.785Z,6.07
2019-03-31T00:17:41.996Z,6.07
2019-03-31T00:18:13.234Z,6.07
2019-03-31T00:18:44.433Z,6.07
2019-03-31T00:19:15.742Z,6.10
2019-03-31T00:19:46.949Z,6.09
2019-03-31T00:20:18.199Z,6.08
2019-03-31T00:20:49.498Z,6.10
2019-03-31T00:21:20.731Z,6.09
2019-03-31T00:21:51.950Z,6.07
2019-03-31T00:22:23.179Z,6.08
2019-03-31T00:22:54.392Z,6.09
2019-03-31T00:23:25.581Z,6.09
2019-03-31T00:23:56.786Z,5.99
2019-03-31T00:24:28.017Z,6.13
2019-03-31T00:24:59.229Z,6.12
2019-03-31T00:25:30.441Z,6.13
2019-03-31T00:26:01.690Z,6.12
2019-03-31T00:26:32.901Z,6.11
2019-03-31T00:27:04.097Z,6.09
2019-03-31T00:27:35.326Z,6.08
2019-03-31T00:28:06.531Z,6.08
2019-03-31T00:28:37.742Z,6.07
2019-03-31T00:29:08.956Z,6.07
2019-03-31T00:29:40.193Z,6.08
2019-03-31T00:30:11.459Z,6.09
2019-03-31T00:30:42.675Z,6.09
2019-03-31T00:31:22.015Z,6.09
2019-03-31T00:31:46.832Z,6.10
2019-03-31T00:32:18.047Z,6.10
2019-03-31T00:32:49.313Z,6.11
2019-03-31T00:33:20.515Z,6.11
2019-03-31T00:33:51.769Z,6.10
2019-03-31T00:34:22.958Z,6.09
2019-03-31T00:34:54.162Z,6.09
2019-03-31T00:35:25.392Z,6.09
2019-03-31T00:35:56.580Z,6.09
2019-03-31T00:36:27.804Z,6.10
2019-03-31T00:36:59.054Z,6.10
2019-03-31T00:37:30.273Z,6.08
2019-03-31T00:38:01.501Z,6.06
2019-03-31T00:38:32.714Z,6.05
2019-03-31T00:39:03.911Z,6.04
2019-03-31T00:39:35.133Z,6.03
2019-03-31T00:40:06.337Z,6.03
2019-03-31T00:40:37.546Z,6.06
2019-03-31T00:41:08.752Z,6.07
2019-03-31T00:41:39.971Z,6.08
2019-03-31T00:42:11.183Z,6.11
2019-03-31T00:42:42.392Z,6.15
2019-03-31T00:43:13.606Z,6.18
2019-03-31T00:43:44.866Z,6.19
2019-03-31T00:44:16.077Z,6.23
2019-03-31T00:44:47.283Z,6.24
2019-03-31T00:45:18.518Z,6.28
2019-03-31T00:45:49.723Z,6.31
2019-03-31T00:46:20.933Z,6.32
2019-03-31T00:46:52.148Z,6.34
2019-03-31T00:47:23.363Z,6.35
2019-03-31T00:47:54.648Z,6.36
2019-03-31T00:48:25.842Z,6.35
2019-03-31T00:48:57.050Z,6.38
2019-03-31T00:49:28.258Z,6.35
2019-03-31T00:49:59.473Z,6.36
2019-03-31T00:50:30.792Z,6.37
2019-03-31T00:51:01.976Z,6.39
2019-03-31T00:51:33.184Z,6.38
2019-03-31T00:52:04.398Z,6.38
2019-03-31T00:52:35.613Z,6.40
2019-03-31T00:53:06.873Z,6.38
2019-03-31T00:53:38.118Z,6.38
2019-03-31T00:54:09.368Z,6.40
2019-03-31T00:54:40.577Z,6.39
2019-03-31T00:55:11.814Z,6.39
2019-03-31T00:55:43.100Z,6.38
2019-03-31T00:56:14.318Z,6.34
2019-03-31T00:56:45.528Z,6.33
2019-03-31T00:57:16.730Z,6.31
2019-03-31T00:57:47.921Z,6.31
2019-03-31T00:58:19.144Z,6.27
2019-03-31T00:58:50.398Z,6.26
2019-03-31T00:59:21.600Z,6.25
2019-03-31T00:59:52.849Z,6.24
2019-03-31T01:00:24.078Z,6.26
2019-03-31T01:00:55.288Z,6.24
2019-03-31T01:01:36.237Z,6.20
2019-03-31T01:01:59.450Z,6.13
2019-03-31T01:02:30.647Z,6.06
2019-03-31T01:03:01.863Z,5.98
2019-03-31T01:03:33.066Z,5.92
2019-03-31T01:04:04.288Z,5.85
2019-03-31T01:04:35.510Z,5.77
2019-03-31T01:05:06.756Z,5.71
2019-03-31T01:05:37.976Z,5.69
2019-03-31T01:06:09.178Z,5.66
2019-03-31T01:06:40.374Z,5.64
2019-03-31T01:07:11.579Z,5.61
2019-03-31T01:07:42.790Z,5.56
2019-03-31T01:08:13.990Z,5.52
2019-03-31T01:08:45.211Z,5.52
2019-03-31T01:09:16.421Z,5.50
2019-03-31T01:09:47.639Z,5.45
2019-03-31T01:10:18.903Z,5.44
2019-03-31T01:10:50.112Z,5.41
2019-03-31T01:11:21.331Z,5.36
2019-03-31T01:11:52.586Z,5.35
2019-03-31T01:12:23.795Z,5.32
2019-03-31T01:12:54.988Z,5.29
2019-03-31T01:13:26.187Z,5.30
2019-03-31T01:13:57.395Z,5.26
2019-03-31T01:14:28.635Z,5.26
2019-03-31T01:14:59.852Z,5.24
2019-03-31T01:15:31.073Z,5.23
2019-03-31T01:16:02.276Z,5.20
2019-03-31T01:16:33.488Z,5.18
2019-03-31T01:17:04.734Z,5.15
2019-03-31T01:17:35.933Z,5.15
2019-03-31T01:18:07.143Z,5.12
2019-03-31T01:18:38.375Z,5.11
2019-03-31T01:19:09.595Z,5.09
2019-03-31T01:19:40.802Z,5.06
2019-03-31T01:20:12.020Z,5.01
2019-03-31T01:20:43.238Z,4.99
2019-03-31T01:21:14.522Z,4.95
2019-03-31T01:21:45.707Z,4.95
2019-03-31T01:22:16.913Z,4.93
2019-03-31T01:22:48.126Z,4.89
2019-03-31T01:23:19.321Z,4.84
2019-03-31T01:23:50.528Z,4.80
2019-03-31T01:24:21.746Z,4.81
2019-03-31T01:24:52.987Z,4.76
2019-03-31T01:25:24.184Z,4.74
2019-03-31T01:25:55.397Z,4.67
2019-03-31T01:26:26.608Z,4.58
2019-03-31T01:26:57.835Z,4.53
2019-03-31T01:27:29.061Z,4.49
2019-03-31T01:28:00.275Z,4.43
2019-03-31T01:28:31.471Z,4.40
2019-03-31T01:29:02.696Z,4.36
2019-03-31T01:29:33.954Z,4.34
2019-03-31T01:30:05.166Z,4.30
2019-03-31T01:30:36.366Z,4.26
2019-03-31T01:31:07.590Z,4.25
2019-03-31T01:31:49.717Z,4.19
2019-03-31T01:32:11.731Z,4.17
2019-03-31T01:32:42.938Z,4.15
2019-03-31T01:33:14.156Z,4.11
2019-03-31T01:33:45.362Z,4.09
2019-03-31T01:34:16.578Z,4.08
2019-03-31T01:34:47.811Z,4.06
2019-03-31T01:35:19.022Z,4.06
2019-03-31T01:35:50.268Z,4.04
2019-03-31T01:36:21.472Z,4.04
2019-03-31T01:36:52.675Z,4.04
2019-03-31T01:37:23.881Z,4.03
2019-03-31T01:37:55.082Z,4.04
2019-03-31T01:38:26.292Z,4.04
2019-03-31T01:38:57.546Z,4.04
2019-03-31T01:39:28.777Z,4.04
2019-03-31T01:39:59.984Z,4.05
2019-03-31T01:40:31.192Z,4.01
2019-03-31T01:41:02.407Z,3.98
2019-03-31T01:41:33.640Z,3.94
2019-03-31T01:42:04.850Z,3.89
2019-03-31T01:42:36.063Z,3.85
2019-03-31T01:43:07.337Z,3.85
2019-03-31T01:43:38.614Z,3.86
2019-03-31T01:44:09.858Z,3.83
2019-03-31T01:44:41.067Z,3.85
2019-03-31T01:45:12.274Z,3.75
2019-03-31T01:45:43.503Z,3.84
2019-03-31T01:46:14.725Z,3.85
2019-03-31T01:46:45.963Z,3.82
2019-03-31T01:47:17.237Z,3.80
2019-03-31T01:47:48.450Z,3.81
2019-03-31T01:48:19.656Z,3.80
2019-03-31T01:48:50.892Z,3.78
2019-03-31T01:49:22.124Z,2.09
2019-03-31T01:49:53.346Z,3.78
2019-03-31T01:50:24.545Z,3.80
2019-03-31T01:50:55.824Z,3.82
2019-03-31T01:51:27.094Z,3.82
2019-03-31T01:51:58.383Z,3.84
2019-03-31T01:52:29.631Z,3.86
2019-03-31T01:53:00.838Z,3.83
2019-03-31T01:53:32.079Z,3.84
2019-03-31T01:54:03.290Z,3.83
2019-03-31T01:54:34.511Z,3.81
2019-03-31T01:55:05.728Z,3.75
2019-03-31T01:55:36.922Z,3.71
2019-03-31T01:56:08.146Z,3.63
2019-03-31T01:56:39.366Z,3.59
2019-03-31T01:57:10.644Z,3.60
2019-03-31T01:57:41.841Z,3.58
2019-03-31T01:58:13.079Z,3.57
2019-03-31T01:58:44.291Z,3.57
2019-03-31T01:59:15.518Z,3.53
2019-03-31T01:59:46.796Z,3.49
2019-03-31T02:00:18.042Z,3.48
2019-03-31T02:00:49.243Z,3.47
2019-03-31T02:01:20.478Z,3.45
2019-03-31T02:02:03.497Z,3.46
2019-03-31T02:02:24.679Z,3.47
2019-03-31T02:02:55.900Z,3.49
2019-03-31T02:03:27.115Z,3.49
2019-03-31T02:03:58.322Z,3.50
2019-03-31T02:04:29.537Z,3.50
2019-03-31T02:05:00.738Z,3.52
2019-03-31T02:05:31.959Z,3.56
2019-03-31T02:06:03.176Z,3.62
2019-03-31T02:06:34.445Z,3.72
2019-03-31T02:07:05.759Z,3.80
2019-03-31T02:07:36.985Z,3.86
2019-03-31T02:08:08.261Z,3.93
2019-03-31T02:08:39.463Z,3.95
2019-03-31T02:09:10.678Z,3.97
2019-03-31T02:09:41.935Z,4.03
2019-03-31T02:10:13.156Z,4.04
2019-03-31T02:10:44.358Z,4.07
2019-03-31T02:11:15.634Z,4.10
2019-03-31T02:11:46.807Z,4.12
2019-03-31T02:12:18.073Z,4.11
2019-03-31T02:12:49.254Z,4.08
2019-03-31T02:13:20.531Z,4.07
2019-03-31T02:13:51.730Z,4.06
2019-03-31T02:14:22.945Z,4.06
2019-03-31T02:14:54.203Z,4.06
2019-03-31T02:15:25.427Z,4.04
2019-03-31T02:15:56.615Z,4.04
2019-03-31T02:16:27.829Z,4.05
2019-03-31T02:16:59.039Z,4.07
2019-03-31T02:17:30.276Z,4.07
2019-03-31T02:18:01.500Z,4.08
2019-03-31T02:18:32.753Z,4.03
2019-03-31T02:19:04.002Z,3.99
2019-03-31T02:19:35.209Z,3.89
2019-03-31T02:20:06.427Z,3.82
2019-03-31T02:20:37.633Z,3.76
2019-03-31T02:21:08.837Z,3.70
2019-03-31T02:21:40.057Z,3.69
2019-03-31T02:22:11.261Z,3.65
2019-03-31T02:22:42.486Z,3.60
2019-03-31T02:23:13.754Z,3.57
2019-03-31T02:23:44.974Z,3.57
2019-03-31T02:24:16.171Z,3.56
2019-03-31T02:24:47.432Z,3.56
2019-03-31T02:25:18.694Z,3.58
2019-03-31T02:25:49.903Z,3.56
2019-03-31T02:26:21.106Z,3.59
2019-03-31T02:26:52.309Z,3.61
2019-03-31T02:27:23.517Z,3.64
2019-03-31T02:27:54.727Z,3.64
2019-03-31T02:28:25.938Z,3.65
2019-03-31T02:28:57.165Z,3.67
2019-03-31T02:29:28.384Z,3.70
2019-03-31T02:29:59.588Z,3.71
2019-03-31T02:30:30.864Z,3.72
2019-03-31T02:31:02.076Z,3.71
2019-03-31T02:31:33.285Z,3.61
2019-03-31T02:32:22.134Z,3.57
2019-03-31T02:32:37.463Z,3.58
2019-03-31T02:33:08.648Z,3.59
2019-03-31T02:33:39.868Z,3.61
2019-03-31T02:34:11.090Z,3.67
2019-03-31T02:34:42.322Z,3.70
2019-03-31T02:35:13.595Z,3.68
2019-03-31T02:35:44.923Z,3.63
2019-03-31T02:36:16.135Z,3.62
2019-03-31T02:36:47.477Z,3.63
2019-03-31T02:37:18.698Z,3.67
2019-03-31T02:37:49.928Z,3.59
2019-03-31T02:38:21.134Z,3.53
2019-03-31T02:38:52.354Z,3.54
2019-03-31T02:39:23.599Z,3.58
2019-03-31T02:39:54.805Z,3.57
2019-03-31T02:40:26.032Z,3.58
2019-03-31T02:40:57.273Z,3.58
2019-03-31T02:41:28.489Z,3.62
2019-03-31T02:41:59.722Z,3.66
2019-03-31T02:42:30.937Z,3.70
2019-03-31T02:43:02.164Z,3.73
2019-03-31T02:43:33.392Z,3.81
2019-03-31T02:44:04.589Z,3.85
2019-03-31T02:44:35.810Z,3.89
2019-03-31T02:45:07.121Z,3.89
2019-03-31T02:45:38.323Z,3.90
2019-03-31T02:46:09.565Z,3.92
2019-03-31T02:46:40.778Z,3.90
2019-03-31T02:47:12.025Z,3.85
2019-03-31T02:47:43.248Z,3.79
2019-03-31T02:48:14.461Z,3.68
2019-03-31T02:48:45.674Z,3.63
2019-03-31T02:49:16.937Z,3.58
2019-03-31T02:49:48.164Z,3.59
2019-03-31T02:50:19.385Z,3.55
2019-03-31T02:50:50.601Z,3.57
2019-03-31T02:51:21.891Z,3.61
2019-03-31T02:51:53.103Z,3.63
2019-03-31T02:52:24.398Z,3.61
2019-03-31T02:52:55.602Z,3.63
2019-03-31T02:53:26.810Z,3.63
2019-03-31T02:53:58.060Z,3.69
2019-03-31T02:54:29.288Z,3.69
2019-03-31T02:55:00.658Z,3.71
2019-03-31T02:55:31.875Z,3.80
2019-03-31T02:56:03.108Z,3.83
2019-03-31T02:56:34.310Z,3.86
2019-03-31T02:57:05.584Z,3.82
2019-03-31T02:57:36.909Z,3.77
2019-03-31T02:58:08.102Z,3.75
2019-03-31T02:58:39.334Z,3.66
2019-03-31T02:59:10.514Z,3.66
2019-03-31T02:59:41.723Z,3.68
2019-03-31T03:00:12.952Z,3.64
2019-03-31T03:00:44.165Z,3.63
2019-03-31T03:01:15.374Z,3.69
2019-03-31T03:01:46.600Z,3.72
2019-03-31T03:02:17.900Z,3.75
2019-03-31T03:02:49.156Z,3.75
2019-03-31T03:03:20.365Z,3.77
2019-03-31T03:03:51.640Z,3.79
2019-03-31T03:04:22.900Z,3.83
2019-03-31T03:04:54.138Z,3.87
2019-03-31T03:05:25.403Z,3.95
2019-03-31T03:05:56.619Z,3.98
2019-03-31T03:06:27.844Z,4.00
2019-03-31T03:06:59.043Z,4.00
2019-03-31T03:07:30.270Z,3.99
2019-03-31T03:08:01.442Z,4.00
2019-03-31T03:08:32.675Z,3.99
2019-03-31T03:09:03.929Z,3.98
2019-03-31T03:09:35.148Z,3.92
2019-03-31T03:10:06.375Z,3.87
2019-03-31T03:10:37.588Z,3.85
2019-03-31T03:11:08.803Z,3.89
2019-03-31T03:11:40.003Z,3.88
2019-03-31T03:12:11.215Z,3.86
2019-03-31T03:12:42.459Z,3.84
2019-03-31T03:13:13.673Z,3.82
2019-03-31T03:13:44.871Z,3.78
2019-03-31T03:14:16.130Z,3.71
2019-03-31T03:14:47.360Z,3.65
2019-03-31T03:15:18.571Z,3.63
2019-03-31T03:15:49.782Z,3.61
2019-03-31T03:16:20.989Z,3.59
2019-03-31T03:16:52.179Z,3.58
2019-03-31T03:17:23.398Z,3.57
2019-03-31T03:17:54.628Z,3.57
2019-03-31T03:18:25.860Z,3.53
2019-03-31T03:18:57.079Z,3.52
2019-03-31T03:19:28.340Z,3.53
2019-03-31T03:19:59.551Z,3.54
2019-03-31T03:20:30.767Z,3.53
2019-03-31T03:21:01.978Z,3.52
2019-03-31T03:21:33.194Z,3.54
2019-03-31T03:22:04.396Z,3.56
2019-03-31T03:22:35.619Z,3.57
2019-03-31T03:23:06.826Z,3.57
2019-03-31T03:23:38.038Z,3.59
2019-03-31T03:24:09.297Z,3.57
2019-03-31T03:24:40.480Z,3.55
2019-03-31T03:25:11.726Z,3.56
2019-03-31T03:25:55.729Z,3.56
2019-03-31T03:26:16.061Z,3.58
2019-03-31T03:26:47.270Z,3.57
2019-03-31T03:27:18.537Z,3.56
2019-03-31T03:27:49.758Z,3.56
2019-03-31T03:28:20.998Z,3.56
2019-03-31T03:28:52.231Z,3.55
2019-03-31T03:29:23.511Z,3.54
2019-03-31T03:30:05.465Z,3.52
2019-03-31T03:30:36.844Z,3.54
2019-03-31T03:31:15.018Z,3.53
2019-03-31T03:31:41.106Z,3.54
2019-03-31T03:32:12.306Z,3.53
2019-03-31T03:33:11.942Z,3.54
2019-03-31T03:33:18.175Z,3.54
2019-03-31T03:33:49.411Z,3.54
2019-03-31T03:34:20.655Z,3.55
2019-03-31T03:34:51.929Z,3.56
2019-03-31T03:35:23.154Z,3.56
2019-03-31T03:35:54.346Z,3.47
2019-03-31T03:36:25.554Z,3.58
2019-03-31T03:36:56.765Z,3.58
2019-03-31T03:37:28.049Z,3.59
2019-03-31T03:37:59.249Z,3.60
2019-03-31T03:38:30.487Z,3.61
2019-03-31T03:39:01.696Z,3.61
2019-03-31T03:39:32.915Z,3.61
2019-03-31T03:40:04.162Z,3.59
2019-03-31T03:40:35.375Z,3.59
2019-03-31T03:41:06.601Z,3.59
2019-03-31T03:41:37.830Z,3.56
2019-03-31T03:42:09.125Z,3.59
2019-03-31T03:42:40.357Z,3.55
2019-03-31T03:43:11.620Z,3.56
2019-03-31T03:43:55.013Z,3.59
2019-03-31T03:44:15.755Z,3.59
2019-03-31T03:44:46.972Z,3.60
2019-03-31T03:45:18.162Z,3.61
2019-03-31T03:45:49.391Z,3.61
2019-03-31T03:46:20.653Z,3.62
2019-03-31T03:46:51.863Z,3.61
2019-03-31T03:47:23.074Z,3.62
2019-03-31T03:47:54.295Z,3.61
2019-03-31T03:48:25.501Z,3.62
2019-03-31T03:48:56.847Z,3.60
2019-03-31T03:49:28.103Z,3.58
2019-03-31T03:49:59.280Z,3.62
2019-03-31T03:50:30.496Z,3.60
2019-03-31T03:51:01.714Z,3.61
2019-03-31T03:51:32.977Z,3.60
2019-03-31T03:52:04.183Z,3.57
2019-03-31T03:52:35.387Z,3.54
2019-03-31T03:53:06.601Z,3.53
2019-03-31T03:53:37.825Z,3.50
2019-03-31T03:54:09.023Z,3.49
2019-03-31T03:54:40.299Z,3.49
2019-03-31T03:55:11.485Z,3.48
2019-03-31T03:55:42.685Z,3.49
2019-03-31T03:56:13.884Z,3.49
2019-03-31T03:56:45.484Z,3.49
2019-03-31T03:57:16.677Z,3.49
2019-03-31T03:57:47.933Z,3.49
2019-03-31T03:58:19.137Z,3.49
2019-03-31T03:58:50.383Z,3.51
2019-03-31T03:59:21.551Z,3.51
2019-03-31T03:59:52.731Z,3.49
2019-03-31T04:00:23.907Z,3.49
2019-03-31T04:00:55.405Z,3.50
2019-03-31T04:01:26.610Z,3.48
2019-03-31T04:01:57.789Z,3.46
2019-03-31T04:02:29.001Z,3.45
2019-03-31T04:03:00.172Z,3.45
2019-03-31T04:03:31.396Z,3.44
2019-03-31T04:04:02.533Z,3.46
2019-03-31T04:04:33.694Z,3.47
2019-03-31T04:05:04.922Z,3.48
2019-03-31T04:05:36.142Z,3.48
2019-03-31T04:06:07.346Z,3.46
2019-03-31T04:06:38.480Z,3.45
2019-03-31T04:07:09.651Z,3.46
2019-03-31T04:07:40.814Z,3.46
2019-03-31T04:08:11.975Z,3.47
2019-03-31T04:08:43.134Z,3.47
2019-03-31T04:09:14.378Z,3.47
2019-03-31T04:09:45.534Z,3.48
2019-03-31T04:10:16.731Z,3.49
2019-03-31T04:10:47.929Z,3.57
2019-03-31T04:11:21.571Z,3.62
2019-03-31T04:11:51.990Z,3.67
2019-03-31T04:12:23.177Z,3.71
2019-03-31T04:12:54.397Z,3.75
2019-03-31T04:13:25.588Z,3.77
2019-03-31T04:13:56.739Z,3.79
2019-03-31T04:14:27.944Z,3.79
2019-03-31T04:14:59.113Z,3.79
2019-03-31T04:15:30.417Z,3.79
2019-03-31T04:16:01.580Z,3.81
2019-03-31T04:16:32.772Z,3.80
2019-03-31T04:17:03.947Z,3.82
2019-03-31T04:17:35.111Z,3.83
2019-03-31T04:18:06.279Z,3.86
2019-03-31T04:18:37.446Z,3.87
2019-03-31T04:19:08.647Z,3.89
2019-03-31T04:19:39.825Z,3.91
2019-03-31T04:20:11.019Z,3.93
2019-03-31T04:20:42.182Z,3.96
2019-03-31T04:21:13.371Z,3.98
2019-03-31T04:21:44.540Z,4.00
2019-03-31T04:22:15.767Z,4.02
2019-03-31T04:22:46.926Z,4.02
2019-03-31T04:23:18.145Z,4.03
2019-03-31T04:23:49.363Z,4.05
2019-03-31T04:24:20.564Z,4.11
2019-03-31T04:24:51.730Z,4.19
2019-03-31T04:25:22.905Z,4.30
2019-03-31T04:25:54.157Z,4.39
2019-03-31T04:26:25.357Z,4.51
2019-03-31T04:26:56.527Z,4.64
2019-03-31T04:27:27.689Z,4.74
2019-03-31T04:27:58.878Z,4.86
2019-03-31T04:28:30.058Z,4.97
2019-03-31T04:29:01.223Z,5.08
2019-03-31T04:29:32.440Z,5.18
2019-03-31T04:30:03.622Z,5.27
2019-03-31T04:30:34.811Z,5.33
2019-03-31T04:31:05.987Z,5.40
2019-03-31T04:31:37.199Z,5.46
2019-03-31T04:32:08.390Z,5.55
2019-03-31T04:32:39.561Z,5.53
2019-03-31T04:33:10.732Z,5.50
2019-03-31T04:33:51.300Z,5.54
2019-03-31T04:34:14.772Z,5.65
2019-03-31T04:34:45.962Z,5.80
2019-03-31T04:35:17.133Z,5.97
2019-03-31T04:35:48.307Z,6.09
2019-03-31T04:36:19.520Z,6.23
2019-03-31T04:36:50.710Z,6.36
2019-03-31T04:37:21.969Z,6.50
2019-03-31T04:37:53.128Z,6.64
2019-03-31T04:38:24.286Z,6.77
2019-03-31T04:38:59.896Z,6.92
2019-03-31T04:39:28.382Z,7.01
2019-03-31T04:39:59.629Z,7.11
2019-03-31T04:40:30.834Z,6.82
2019-03-31T04:41:02.033Z,6.49
2019-03-31T04:41:33.205Z,6.39
2019-03-31T04:42:04.377Z,6.42
2019-03-31T04:42:35.548Z,6.54
2019-03-31T04:43:06.715Z,6.71
2019-03-31T04:43:37.893Z,6.79
2019-03-31T04:44:09.086Z,6.87
2019-03-31T04:44:40.308Z,6.94
2019-03-31T04:45:11.495Z,7.00
2019-03-31T04:45:43.012Z,7.09
2019-03-31T04:46:14.208Z,7.24
2019-03-31T04:46:45.383Z,7.40
2019-03-31T04:47:16.626Z,7.54
2019-03-31T04:47:47.787Z,7.67
2019-03-31T04:48:18.955Z,7.81
2019-03-31T04:48:50.108Z,7.87
2019-03-31T04:49:21.280Z,7.94
2019-03-31T04:49:52.465Z,7.95
2019-03-31T04:50:23.675Z,7.95
2019-03-31T04:50:54.841Z,7.90
2019-03-31T04:51:26.011Z,7.83
2019-03-31T04:51:57.218Z,7.76
2019-03-31T04:52:28.378Z,7.56
2019-03-31T04:52:59.543Z,7.40
2019-03-31T04:53:30.751Z,7.24
2019-03-31T04:54:01.950Z,7.15
2019-03-31T04:54:33.129Z,7.12
2019-03-31T04:55:04.317Z,7.17
2019-03-31T04:55:35.473Z,7.31
2019-03-31T04:56:06.644Z,7.39
2019-03-31T04:56:37.883Z,7.50
2019-03-31T04:57:09.045Z,7.66
2019-03-31T04:57:40.262Z,7.85
2019-03-31T04:58:11.423Z,8.06
2019-03-31T04:58:42.591Z,8.21
2019-03-31T04:59:13.770Z,8.32
2019-03-31T04:59:44.929Z,8.40
2019-03-31T05:00:16.105Z,8.47
2019-03-31T05:00:47.281Z,8.55
2019-03-31T05:01:18.449Z,8.68
2019-03-31T05:01:49.615Z,8.71
2019-03-31T05:02:20.785Z,8.85
2019-03-31T05:02:51.997Z,9.00
2019-03-31T05:03:23.224Z,9.17
2019-03-31T05:04:04.680Z,9.29
2019-03-31T05:04:27.276Z,9.44
2019-03-31T05:04:58.446Z,9.56
2019-03-31T05:05:29.608Z,9.61
2019-03-31T05:06:00.792Z,9.65
2019-03-31T05:06:31.948Z,9.67
2019-03-31T05:07:03.147Z,9.73
2019-03-31T05:07:34.333Z,9.77
2019-03-31T05:08:05.503Z,9.86
2019-03-31T05:08:36.717Z,9.93
2019-03-31T05:09:07.956Z,9.95
2019-03-31T05:09:39.130Z,9.98
2019-03-31T05:10:10.299Z,9.96
2019-03-31T05:10:41.503Z,9.98
2019-03-31T05:11:12.675Z,9.99
2019-03-31T05:11:43.849Z,9.96
2019-03-31T05:12:16.913Z,10.00
2019-03-31T05:12:47.923Z,10.02
2019-03-31T05:13:19.106Z,10.11
2019-03-31T05:13:50.281Z,10.02
2019-03-31T05:14:21.450Z,10.12
2019-03-31T05:14:52.636Z,10.18
2019-03-31T05:15:23.845Z,10.25
2019-03-31T05:15:55.015Z,10.25
2019-03-31T05:16:26.185Z,10.04
2019-03-31T05:16:57.351Z,10.01
2019-03-31T05:17:28.528Z,10.04
2019-03-31T05:17:59.700Z,10.06
2019-03-31T05:18:30.858Z,10.12
2019-03-31T05:19:02.034Z,10.17
2019-03-31T05:19:33.199Z,10.06
2019-03-31T05:20:04.351Z,9.95
2019-03-31T05:20:35.587Z,9.78
2019-03-31T05:21:06.815Z,9.64
2019-03-31T05:21:38.025Z,9.47
2019-03-31T05:22:09.205Z,9.23
2019-03-31T05:22:40.382Z,9.02
2019-03-31T05:23:11.530Z,9.00
2019-03-31T05:23:42.767Z,9.01
2019-03-31T05:24:13.924Z,9.03
2019-03-31T05:24:45.116Z,9.04
2019-03-31T05:25:16.299Z,9.11
2019-03-31T05:25:47.513Z,9.12
2019-03-31T05:26:18.670Z,9.13
2019-03-31T05:26:49.845Z,9.18
2019-03-31T05:27:20.996Z,9.21
2019-03-31T05:27:52.175Z,9.27
2019-03-31T05:28:23.360Z,9.29
2019-03-31T05:28:54.577Z,9.28
2019-03-31T05:29:25.762Z,9.28
2019-03-31T05:29:56.945Z,9.22
2019-03-31T05:30:28.112Z,9.22
2019-03-31T05:30:59.378Z,9.21
2019-03-31T05:31:30.537Z,9.26
2019-03-31T05:32:01.716Z,9.31
2019-03-31T05:32:32.901Z,9.34
2019-03-31T05:33:04.067Z,9.31
2019-03-31T05:33:35.354Z,9.36
2019-03-31T05:34:18.543Z,9.42
2019-03-31T05:34:39.442Z,9.41
2019-03-31T05:35:10.621Z,9.35
2019-03-31T05:35:41.807Z,9.32
2019-03-31T05:36:13.023Z,9.33
2019-03-31T05:36:44.193Z,9.43
2019-03-31T05:37:15.420Z,9.51
2019-03-31T05:37:51.211Z,9.55
2019-03-31T05:38:19.463Z,9.60
2019-03-31T05:38:50.622Z,9.60
2019-03-31T05:39:21.801Z,9.64
2019-03-31T05:39:52.972Z,9.66
2019-03-31T05:40:24.137Z,9.72
2019-03-31T05:40:55.315Z,9.71
2019-03-31T05:41:26.586Z,9.74
2019-03-31T05:41:57.784Z,9.78
2019-03-31T05:42:28.951Z,9.84
2019-03-31T05:43:00.112Z,9.76
2019-03-31T05:43:31.296Z,9.68
2019-03-31T05:44:05.854Z,9.47
2019-03-31T05:44:35.365Z,9.41
2019-03-31T05:45:06.524Z,9.46
2019-03-31T05:45:37.681Z,9.46
2019-03-31T05:46:08.863Z,9.55
2019-03-31T05:46:40.031Z,9.61
2019-03-31T05:47:11.244Z,9.69
2019-03-31T05:47:42.410Z,9.74
2019-03-31T05:48:13.595Z,9.79
2019-03-31T05:48:44.812Z,9.81
2019-03-31T05:49:15.976Z,9.91
2019-03-31T05:49:47.137Z,9.94
2019-03-31T05:50:18.336Z,9.98
2019-03-31T05:50:49.485Z,9.97
2019-03-31T05:51:20.647Z,9.86
2019-03-31T05:51:51.827Z,9.94
2019-03-31T05:52:23.041Z,9.87
2019-03-31T05:52:54.202Z,9.97
2019-03-31T05:53:25.387Z,10.05
2019-03-31T05:53:56.546Z,10.10
2019-03-31T05:54:27.738Z,10.04
2019-03-31T05:54:58.891Z,9.98
2019-03-31T05:55:30.103Z,9.91
2019-03-31T05:56:01.272Z,9.94
2019-03-31T05:56:32.434Z,9.97
2019-03-31T05:57:03.610Z,9.83
2019-03-31T05:57:34.775Z,9.83
2019-03-31T05:58:05.932Z,9.77
2019-03-31T05:58:37.118Z,9.74
2019-03-31T05:59:08.329Z,9.73
2019-03-31T05:59:39.522Z,9.71
2019-03-31T06:00:10.733Z,9.67
2019-03-31T06:00:41.896Z,9.66
2019-03-31T06:01:13.151Z,9.73
2019-03-31T06:01:44.319Z,9.80
2019-03-31T06:02:15.494Z,9.82
2019-03-31T06:02:46.656Z,9.77
2019-03-31T06:03:17.842Z,9.66
2019-03-31T06:03:49.003Z,9.54
2019-03-31T06:04:32.655Z,9.55
2019-03-31T06:04:53.115Z,9.51
2019-03-31T06:05:24.277Z,9.52
2019-03-31T06:05:55.443Z,9.67
2019-03-31T06:06:26.601Z,9.89
2019-03-31T06:06:57.764Z,9.93
2019-03-31T06:07:28.928Z,9.85
2019-03-31T06:08:00.089Z,9.86
2019-03-31T06:08:31.242Z,9.98
2019-03-31T06:09:02.405Z,10.08
2019-03-31T06:09:33.608Z,10.16
2019-03-31T06:10:04.825Z,10.31
2019-03-31T06:10:36.015Z,10.37
2019-03-31T06:11:07.276Z,10.27
2019-03-31T06:11:38.455Z,10.33
2019-03-31T06:12:09.617Z,10.31
2019-03-31T06:12:40.778Z,10.15
2019-03-31T06:13:11.972Z,10.04
2019-03-31T06:13:43.134Z,10.01
2019-03-31T06:14:14.642Z,10.13
2019-03-31T06:14:45.816Z,10.28
2019-03-31T06:15:17.065Z,10.43
2019-03-31T06:15:48.225Z,10.55
2019-03-31T06:16:19.389Z,10.50
2019-03-31T06:16:50.553Z,10.47
2019-03-31T06:17:21.720Z,10.48
2019-03-31T06:17:52.884Z,10.54
2019-03-31T06:18:24.065Z,10.65
2019-03-31T06:18:55.327Z,10.76
2019-03-31T06:19:26.581Z,10.77
2019-03-31T06:19:57.739Z,10.60
2019-03-31T06:20:28.964Z,10.50
2019-03-31T06:21:00.120Z,10.45
2019-03-31T06:21:31.299Z,10.46
2019-03-31T06:22:02.558Z,10.45
2019-03-31T06:22:33.731Z,10.56
2019-03-31T06:23:04.937Z,10.61
2019-03-31T06:23:36.106Z,10.63
2019-03-31T06:24:07.292Z,10.64
2019-03-31T06:24:38.447Z,10.61
2019-03-31T06:25:09.600Z,10.52
2019-03-31T06:25:40.776Z,10.64
2019-03-31T06:26:11.957Z,10.68
2019-03-31T06:26:43.119Z,10.63
2019-03-31T06:27:15.775Z,10.65
2019-03-31T06:27:47.155Z,10.63
2019-03-31T06:28:18.367Z,10.57
2019-03-31T06:28:49.542Z,10.42
2019-03-31T06:29:20.726Z,10.31
2019-03-31T06:29:51.938Z,10.41
2019-03-31T06:30:23.125Z,10.56
2019-03-31T06:30:54.291Z,10.72
2019-03-31T06:31:25.460Z,10.72
2019-03-31T06:31:56.626Z,10.85
2019-03-31T06:32:27.797Z,10.93
2019-03-31T06:32:59.000Z,11.00
2019-03-31T06:33:30.196Z,11.10
2019-03-31T06:34:01.401Z,11.14
2019-03-31T06:34:46.417Z,11.23
2019-03-31T06:35:05.460Z,11.26
2019-03-31T06:35:36.608Z,11.32
2019-03-31T06:36:07.807Z,11.31
2019-03-31T06:36:38.970Z,11.30
2019-03-31T06:37:10.143Z,11.30
2019-03-31T06:37:41.314Z,11.27
2019-03-31T06:38:12.972Z,10.98
2019-03-31T06:38:44.131Z,10.97
2019-03-31T06:39:15.310Z,11.05
2019-03-31T06:39:46.501Z,11.14
2019-03-31T06:40:17.679Z,11.19
2019-03-31T06:40:48.854Z,11.17
2019-03-31T06:41:20.033Z,11.19
2019-03-31T06:41:51.211Z,11.18
2019-03-31T06:42:22.389Z,11.22
2019-03-31T06:42:53.566Z,11.25
2019-03-31T06:43:24.807Z,11.21
2019-03-31T06:43:55.968Z,11.03
2019-03-31T06:44:27.149Z,10.95
2019-03-31T06:44:58.322Z,10.89
2019-03-31T06:45:29.504Z,10.84
2019-03-31T06:46:00.666Z,10.85
2019-03-31T06:46:31.848Z,10.80
2019-03-31T06:47:03.010Z,10.75
2019-03-31T06:47:34.186Z,10.76
2019-03-31T06:48:05.418Z,10.80
2019-03-31T06:48:36.613Z,10.87
2019-03-31T06:49:07.776Z,10.96
2019-03-31T06:49:38.985Z,11.01
2019-03-31T06:50:10.154Z,11.06
2019-03-31T06:50:41.336Z,11.01
2019-03-31T06:51:12.513Z,10.94
2019-03-31T06:51:43.677Z,10.97
2019-03-31T06:52:14.882Z,11.01
2019-03-31T06:52:46.047Z,11.12
2019-03-31T06:53:17.219Z,11.24
2019-03-31T06:53:48.393Z,11.30
2019-03-31T06:54:19.581Z,11.39